sensor_id;sensor_type;location;lat;lon;timestamp;temperature;humidity
56172;DHT22;42052;41.634;-0.946;2023-05-07T00:02:11;25.80;43.80
56172;DHT22;42052;41.634;-0.946;2023-05-07T00:04:57;25.80;43.70
56172;DHT22;42052;41.634;-0.946;2023-05-07T00:07:43;25.80;43.70
56172;DHT22;42052;41.634;-0.946;2023-05-07T00:10:29;25.80;43.60
56172;DHT22;42052;41.634;-0.946;2023-05-07T00:13:15;25.80;43.50
56172;DHT22;42052;41.634;-0.946;2023-05-07T00:16:02;25.80;43.50
56172;DHT22;42052;41.634;-0.946;2023-05-07T00:18:48;25.80;44.20
56172;DHT22;42052;41.634;-0.946;2023-05-07T00:21:35;25.80;43.50
56172;DHT22;42052;41.634;-0.946;2023-05-07T00:24:21;25.80;43.30
56172;DHT22;42052;41.634;-0.946;2023-05-07T00:27:07;25.80;43.30
56172;DHT22;42052;41.634;-0.946;2023-05-07T00:29:53;25.80;43.40
56172;DHT22;42052;41.634;-0.946;2023-05-07T00:32:39;25.80;43.20
56172;DHT22;42052;41.634;-0.946;2023-05-07T00:35:28;25.80;43.20
56172;DHT22;42052;41.634;-0.946;2023-05-07T00:38:15;25.70;43.00
56172;DHT22;42052;41.634;-0.946;2023-05-07T00:41:01;25.70;43.10
56172;DHT22;42052;41.634;-0.946;2023-05-07T00:43:48;25.70;43.00
56172;DHT22;42052;41.634;-0.946;2023-05-07T00:46:34;25.70;43.00
56172;DHT22;42052;41.634;-0.946;2023-05-07T00:49:20;25.70;42.90
56172;DHT22;42052;41.634;-0.946;2023-05-07T00:52:07;25.80;43.00
56172;DHT22;42052;41.634;-0.946;2023-05-07T00:54:55;25.70;42.80
56172;DHT22;42052;41.634;-0.946;2023-05-07T00:57:41;25.70;42.80
56172;DHT22;42052;41.634;-0.946;2023-05-07T01:00:28;25.70;42.80
56172;DHT22;42052;41.634;-0.946;2023-05-07T01:03:14;25.70;42.90
56172;DHT22;42052;41.634;-0.946;2023-05-07T01:06:01;25.70;42.70
56172;DHT22;42052;41.634;-0.946;2023-05-07T01:08:48;25.70;42.70
56172;DHT22;42052;41.634;-0.946;2023-05-07T01:11:36;25.70;42.80
56172;DHT22;42052;41.634;-0.946;2023-05-07T01:14:22;25.70;42.70
56172;DHT22;42052;41.634;-0.946;2023-05-07T01:17:08;25.70;42.60
56172;DHT22;42052;41.634;-0.946;2023-05-07T01:19:54;25.60;42.50
56172;DHT22;42052;41.634;-0.946;2023-05-07T01:22:41;25.70;42.60
56172;DHT22;42052;41.634;-0.946;2023-05-07T01:25:28;25.60;42.60
56172;DHT22;42052;41.634;-0.946;2023-05-07T01:28:15;25.60;42.60
56172;DHT22;42052;41.634;-0.946;2023-05-07T01:31:03;25.60;42.60
56172;DHT22;42052;41.634;-0.946;2023-05-07T01:33:50;25.60;42.70
56172;DHT22;42052;41.634;-0.946;2023-05-07T01:36:38;25.60;42.70
56172;DHT22;42052;41.634;-0.946;2023-05-07T01:39:27;25.60;42.60
56172;DHT22;42052;41.634;-0.946;2023-05-07T01:42:13;25.60;42.70
56172;DHT22;42052;41.634;-0.946;2023-05-07T01:45:00;25.60;42.60
56172;DHT22;42052;41.634;-0.946;2023-05-07T01:47:46;25.60;42.60
56172;DHT22;42052;41.634;-0.946;2023-05-07T01:50:33;25.60;42.70
56172;DHT22;42052;41.634;-0.946;2023-05-07T01:53:20;25.60;43.00
56172;DHT22;42052;41.634;-0.946;2023-05-07T01:56:07;25.60;42.80
56172;DHT22;42052;41.634;-0.946;2023-05-07T01:58:53;25.60;42.70
56172;DHT22;42052;41.634;-0.946;2023-05-07T02:01:39;25.60;42.70
56172;DHT22;42052;41.634;-0.946;2023-05-07T02:04:26;25.60;42.60
56172;DHT22;42052;41.634;-0.946;2023-05-07T02:07:12;25.60;42.60
56172;DHT22;42052;41.634;-0.946;2023-05-07T02:09:58;25.60;42.60
56172;DHT22;42052;41.634;-0.946;2023-05-07T02:12:44;25.50;42.60
56172;DHT22;42052;41.634;-0.946;2023-05-07T02:15:30;25.60;42.60
56172;DHT22;42052;41.634;-0.946;2023-05-07T02:18:16;25.60;42.70
56172;DHT22;42052;41.634;-0.946;2023-05-07T02:21:02;25.50;42.80
56172;DHT22;42052;41.634;-0.946;2023-05-07T02:23:49;25.50;42.50
56172;DHT22;42052;41.634;-0.946;2023-05-07T02:26:35;25.60;42.50
56172;DHT22;42052;41.634;-0.946;2023-05-07T02:29:21;25.50;42.40
56172;DHT22;42052;41.634;-0.946;2023-05-07T02:32:07;25.60;42.50
56172;DHT22;42052;41.634;-0.946;2023-05-07T02:34:53;25.50;42.50
56172;DHT22;42052;41.634;-0.946;2023-05-07T02:37:39;25.50;42.50
56172;DHT22;42052;41.634;-0.946;2023-05-07T02:40:25;25.50;42.60
56172;DHT22;42052;41.634;-0.946;2023-05-07T02:43:11;25.50;42.70
56172;DHT22;42052;41.634;-0.946;2023-05-07T02:46:05;25.50;42.80
56172;DHT22;42052;41.634;-0.946;2023-05-07T02:48:51;25.50;42.70
56172;DHT22;42052;41.634;-0.946;2023-05-07T02:51:37;25.50;42.70
56172;DHT22;42052;41.634;-0.946;2023-05-07T02:54:23;25.50;42.60
56172;DHT22;42052;41.634;-0.946;2023-05-07T02:57:10;25.50;42.60
56172;DHT22;42052;41.634;-0.946;2023-05-07T02:59:58;25.50;42.50
56172;DHT22;42052;41.634;-0.946;2023-05-07T03:02:44;25.50;42.50
56172;DHT22;42052;41.634;-0.946;2023-05-07T03:05:30;25.40;42.50
56172;DHT22;42052;41.634;-0.946;2023-05-07T03:08:17;25.50;42.50
56172;DHT22;42052;41.634;-0.946;2023-05-07T03:11:03;25.40;42.50
56172;DHT22;42052;41.634;-0.946;2023-05-07T03:13:49;25.50;42.60
56172;DHT22;42052;41.634;-0.946;2023-05-07T03:16:35;25.40;42.40
56172;DHT22;42052;41.634;-0.946;2023-05-07T03:19:21;25.50;42.40
56172;DHT22;42052;41.634;-0.946;2023-05-07T03:22:08;25.40;42.30
56172;DHT22;42052;41.634;-0.946;2023-05-07T03:24:54;25.40;42.30
56172;DHT22;42052;41.634;-0.946;2023-05-07T03:27:40;25.40;42.40
56172;DHT22;42052;41.634;-0.946;2023-05-07T03:30:27;25.40;42.30
56172;DHT22;42052;41.634;-0.946;2023-05-07T03:33:13;25.40;42.20
56172;DHT22;42052;41.634;-0.946;2023-05-07T03:36:00;25.50;42.30
56172;DHT22;42052;41.634;-0.946;2023-05-07T03:38:46;25.40;42.20
56172;DHT22;42052;41.634;-0.946;2023-05-07T03:41:32;25.40;42.20
56172;DHT22;42052;41.634;-0.946;2023-05-07T03:44:18;25.40;42.20
56172;DHT22;42052;41.634;-0.946;2023-05-07T03:47:04;25.40;42.30
56172;DHT22;42052;41.634;-0.946;2023-05-07T03:49:50;25.40;42.30
56172;DHT22;42052;41.634;-0.946;2023-05-07T03:52:38;25.40;42.30
56172;DHT22;42052;41.634;-0.946;2023-05-07T03:55:25;25.40;42.40
56172;DHT22;42052;41.634;-0.946;2023-05-07T03:58:11;25.40;42.30
56172;DHT22;42052;41.634;-0.946;2023-05-07T04:00:57;25.40;42.30
56172;DHT22;42052;41.634;-0.946;2023-05-07T04:03:43;25.30;42.40
56172;DHT22;42052;41.634;-0.946;2023-05-07T04:06:30;25.30;42.40
56172;DHT22;42052;41.634;-0.946;2023-05-07T04:09:17;25.30;42.40
56172;DHT22;42052;41.634;-0.946;2023-05-07T04:12:03;25.30;42.40
56172;DHT22;42052;41.634;-0.946;2023-05-07T04:14:49;25.30;42.40
56172;DHT22;42052;41.634;-0.946;2023-05-07T04:17:36;25.30;42.40
56172;DHT22;42052;41.634;-0.946;2023-05-07T04:20:22;25.30;42.50
56172;DHT22;42052;41.634;-0.946;2023-05-07T04:23:09;25.30;42.50
56172;DHT22;42052;41.634;-0.946;2023-05-07T04:25:55;25.30;42.50
56172;DHT22;42052;41.634;-0.946;2023-05-07T04:28:42;25.30;42.50
56172;DHT22;42052;41.634;-0.946;2023-05-07T04:31:28;25.30;42.50
56172;DHT22;42052;41.634;-0.946;2023-05-07T04:34:14;25.30;42.50
56172;DHT22;42052;41.634;-0.946;2023-05-07T04:37:00;25.30;42.50
56172;DHT22;42052;41.634;-0.946;2023-05-07T04:39:47;25.30;42.60
56172;DHT22;42052;41.634;-0.946;2023-05-07T04:42:33;25.30;43.30
56172;DHT22;42052;41.634;-0.946;2023-05-07T04:45:20;25.20;42.60
56172;DHT22;42052;41.634;-0.946;2023-05-07T04:48:08;25.20;42.50
56172;DHT22;42052;41.634;-0.946;2023-05-07T04:50:55;25.20;42.50
56172;DHT22;42052;41.634;-0.946;2023-05-07T04:53:41;25.20;42.50
56172;DHT22;42052;41.634;-0.946;2023-05-07T04:56:29;25.20;42.40
56172;DHT22;42052;41.634;-0.946;2023-05-07T04:59:18;25.20;42.40
56172;DHT22;42052;41.634;-0.946;2023-05-07T05:02:04;25.20;42.40
56172;DHT22;42052;41.634;-0.946;2023-05-07T05:04:50;25.20;42.30
56172;DHT22;42052;41.634;-0.946;2023-05-07T05:07:36;25.20;42.30
56172;DHT22;42052;41.634;-0.946;2023-05-07T05:10:23;25.20;42.40
56172;DHT22;42052;41.634;-0.946;2023-05-07T05:13:09;25.20;42.40
56172;DHT22;42052;41.634;-0.946;2023-05-07T05:15:55;25.20;42.40
56172;DHT22;42052;41.634;-0.946;2023-05-07T05:18:41;25.10;42.40
56172;DHT22;42052;41.634;-0.946;2023-05-07T05:21:28;25.10;42.40
56172;DHT22;42052;41.634;-0.946;2023-05-07T05:24:14;25.10;42.40
56172;DHT22;42052;41.634;-0.946;2023-05-07T05:27:00;25.10;42.40
56172;DHT22;42052;41.634;-0.946;2023-05-07T05:29:47;25.10;42.50
56172;DHT22;42052;41.634;-0.946;2023-05-07T05:32:33;25.10;42.40
56172;DHT22;42052;41.634;-0.946;2023-05-07T05:35:19;25.10;42.40
56172;DHT22;42052;41.634;-0.946;2023-05-07T05:38:06;25.10;42.40
56172;DHT22;42052;41.634;-0.946;2023-05-07T05:40:52;25.10;42.30
56172;DHT22;42052;41.634;-0.946;2023-05-07T05:43:38;25.10;42.30
56172;DHT22;42052;41.634;-0.946;2023-05-07T05:46:24;25.10;42.40
56172;DHT22;42052;41.634;-0.946;2023-05-07T05:49:10;25.00;42.30
56172;DHT22;42052;41.634;-0.946;2023-05-07T05:51:56;25.00;42.30
56172;DHT22;42052;41.634;-0.946;2023-05-07T05:54:42;25.00;42.30
56172;DHT22;42052;41.634;-0.946;2023-05-07T05:57:28;25.00;42.30
56172;DHT22;42052;41.634;-0.946;2023-05-07T06:00:14;25.00;42.20
56172;DHT22;42052;41.634;-0.946;2023-05-07T06:03:01;25.00;42.20
56172;DHT22;42052;41.634;-0.946;2023-05-07T06:05:47;25.00;42.20
56172;DHT22;42052;41.634;-0.946;2023-05-07T06:08:33;25.00;42.20
56172;DHT22;42052;41.634;-0.946;2023-05-07T06:11:19;25.00;42.30
56172;DHT22;42052;41.634;-0.946;2023-05-07T06:14:06;25.00;42.20
56172;DHT22;42052;41.634;-0.946;2023-05-07T06:16:52;25.00;42.20
56172;DHT22;42052;41.634;-0.946;2023-05-07T06:19:38;25.00;42.20
56172;DHT22;42052;41.634;-0.946;2023-05-07T06:22:24;25.00;42.10
56172;DHT22;42052;41.634;-0.946;2023-05-07T06:25:10;25.00;42.20
56172;DHT22;42052;41.634;-0.946;2023-05-07T06:27:56;25.00;42.30
56172;DHT22;42052;41.634;-0.946;2023-05-07T06:30:42;25.00;42.20
56172;DHT22;42052;41.634;-0.946;2023-05-07T06:33:28;25.00;42.20
56172;DHT22;42052;41.634;-0.946;2023-05-07T06:36:14;25.00;42.40
56172;DHT22;42052;41.634;-0.946;2023-05-07T06:39:01;24.90;42.50
56172;DHT22;42052;41.634;-0.946;2023-05-07T06:41:47;24.90;42.60
56172;DHT22;42052;41.634;-0.946;2023-05-07T06:44:33;24.90;42.60
56172;DHT22;42052;41.634;-0.946;2023-05-07T06:47:19;24.90;42.70
56172;DHT22;42052;41.634;-0.946;2023-05-07T06:50:06;24.90;42.70
56172;DHT22;42052;41.634;-0.946;2023-05-07T06:52:52;24.90;42.60
56172;DHT22;42052;41.634;-0.946;2023-05-07T06:55:38;24.90;42.50
56172;DHT22;42052;41.634;-0.946;2023-05-07T06:58:24;24.90;42.40
56172;DHT22;42052;41.634;-0.946;2023-05-07T07:01:10;25.00;42.30
56172;DHT22;42052;41.634;-0.946;2023-05-07T07:03:56;25.00;42.20
56172;DHT22;42052;41.634;-0.946;2023-05-07T07:06:43;25.00;42.20
56172;DHT22;42052;41.634;-0.946;2023-05-07T07:09:29;25.00;42.20
56172;DHT22;42052;41.634;-0.946;2023-05-07T07:12:15;25.00;42.20
56172;DHT22;42052;41.634;-0.946;2023-05-07T07:15:01;25.00;42.20
56172;DHT22;42052;41.634;-0.946;2023-05-07T07:17:48;25.00;42.40
56172;DHT22;42052;41.634;-0.946;2023-05-07T07:20:34;25.00;42.20
56172;DHT22;42052;41.634;-0.946;2023-05-07T07:23:20;25.00;42.20
56172;DHT22;42052;41.634;-0.946;2023-05-07T07:26:07;25.00;42.10
56172;DHT22;42052;41.634;-0.946;2023-05-07T07:28:53;24.90;42.30
56172;DHT22;42052;41.634;-0.946;2023-05-07T07:31:39;25.00;42.30
56172;DHT22;42052;41.634;-0.946;2023-05-07T07:34:25;24.90;42.50
56172;DHT22;42052;41.634;-0.946;2023-05-07T07:37:11;24.90;42.40
56172;DHT22;42052;41.634;-0.946;2023-05-07T07:39:57;24.70;42.20
56172;DHT22;42052;41.634;-0.946;2023-05-07T07:42:43;24.60;42.50
56172;DHT22;42052;41.634;-0.946;2023-05-07T07:45:29;24.50;42.60
56172;DHT22;42052;41.634;-0.946;2023-05-07T07:48:15;24.30;42.70
56172;DHT22;42052;41.634;-0.946;2023-05-07T07:51:01;24.20;43.00
56172;DHT22;42052;41.634;-0.946;2023-05-07T07:53:47;24.20;43.10
56172;DHT22;42052;41.634;-0.946;2023-05-07T07:56:33;24.10;43.10
56172;DHT22;42052;41.634;-0.946;2023-05-07T07:59:20;24.10;43.10
56172;DHT22;42052;41.634;-0.946;2023-05-07T08:02:06;24.00;43.10
56172;DHT22;42052;41.634;-0.946;2023-05-07T08:04:52;24.00;43.40
56172;DHT22;42052;41.634;-0.946;2023-05-07T08:07:38;24.00;43.50
56172;DHT22;42052;41.634;-0.946;2023-05-07T08:10:24;23.90;43.70
56172;DHT22;42052;41.634;-0.946;2023-05-07T08:13:10;23.90;43.70
56172;DHT22;42052;41.634;-0.946;2023-05-07T08:15:56;23.70;44.10
56172;DHT22;42052;41.634;-0.946;2023-05-07T08:18:43;23.80;44.20
56172;DHT22;42052;41.634;-0.946;2023-05-07T08:21:29;23.80;44.10
56172;DHT22;42052;41.634;-0.946;2023-05-07T08:24:17;23.70;44.30
56172;DHT22;42052;41.634;-0.946;2023-05-07T08:27:03;23.70;44.20
56172;DHT22;42052;41.634;-0.946;2023-05-07T08:29:49;23.70;43.90
56172;DHT22;42052;41.634;-0.946;2023-05-07T08:32:35;23.60;44.10
56172;DHT22;42052;41.634;-0.946;2023-05-07T08:35:21;23.70;44.00
56172;DHT22;42052;41.634;-0.946;2023-05-07T08:38:08;23.70;43.90
56172;DHT22;42052;41.634;-0.946;2023-05-07T08:40:54;23.70;43.60
56172;DHT22;42052;41.634;-0.946;2023-05-07T08:43:41;23.80;43.30
56172;DHT22;42052;41.634;-0.946;2023-05-07T08:46:31;23.70;43.30
56172;DHT22;42052;41.634;-0.946;2023-05-07T08:49:18;23.60;43.90
56172;DHT22;42052;41.634;-0.946;2023-05-07T08:52:04;23.60;44.00
56172;DHT22;42052;41.634;-0.946;2023-05-07T08:54:50;23.60;43.90
56172;DHT22;42052;41.634;-0.946;2023-05-07T08:57:36;23.70;43.80
56172;DHT22;42052;41.634;-0.946;2023-05-07T09:00:22;23.70;43.70
56172;DHT22;42052;41.634;-0.946;2023-05-07T09:03:08;23.70;43.80
56172;DHT22;42052;41.634;-0.946;2023-05-07T09:05:58;23.70;43.90
56172;DHT22;42052;41.634;-0.946;2023-05-07T09:08:53;23.70;43.90
56172;DHT22;42052;41.634;-0.946;2023-05-07T09:11:41;23.70;44.00
56172;DHT22;42052;41.634;-0.946;2023-05-07T09:14:27;23.80;44.00
56172;DHT22;42052;41.634;-0.946;2023-05-07T09:17:15;23.70;44.00
56172;DHT22;42052;41.634;-0.946;2023-05-07T09:20:05;23.80;44.20
56172;DHT22;42052;41.634;-0.946;2023-05-07T09:22:51;23.70;44.40
56172;DHT22;42052;41.634;-0.946;2023-05-07T09:25:37;23.70;44.50
56172;DHT22;42052;41.634;-0.946;2023-05-07T09:28:23;23.60;44.70
56172;DHT22;42052;41.634;-0.946;2023-05-07T09:31:11;23.70;44.60
56172;DHT22;42052;41.634;-0.946;2023-05-07T09:33:57;23.70;44.60
56172;DHT22;42052;41.634;-0.946;2023-05-07T09:36:44;23.80;44.50
56172;DHT22;42052;41.634;-0.946;2023-05-07T09:39:47;23.80;44.40
56172;DHT22;42052;41.634;-0.946;2023-05-07T09:42:33;23.80;44.20
56172;DHT22;42052;41.634;-0.946;2023-05-07T09:45:28;23.80;44.40
56172;DHT22;42052;41.634;-0.946;2023-05-07T09:48:16;23.80;44.50
56172;DHT22;42052;41.634;-0.946;2023-05-07T09:51:11;23.70;44.70
56172;DHT22;42052;41.634;-0.946;2023-05-07T09:54:00;23.80;44.60
56172;DHT22;42052;41.634;-0.946;2023-05-07T09:56:49;23.90;44.40
56172;DHT22;42052;41.634;-0.946;2023-05-07T09:59:37;23.90;44.30
56172;DHT22;42052;41.634;-0.946;2023-05-07T10:02:26;23.90;44.30
56172;DHT22;42052;41.634;-0.946;2023-05-07T10:05:15;23.90;44.20
56172;DHT22;42052;41.634;-0.946;2023-05-07T10:08:03;23.90;44.10
56172;DHT22;42052;41.634;-0.946;2023-05-07T10:10:49;23.90;44.30
56172;DHT22;42052;41.634;-0.946;2023-05-07T10:13:36;23.90;44.60
56172;DHT22;42052;41.634;-0.946;2023-05-07T10:16:23;23.90;44.30
56172;DHT22;42052;41.634;-0.946;2023-05-07T10:19:10;23.90;44.20
56172;DHT22;42052;41.634;-0.946;2023-05-07T10:22:02;23.90;44.20
56172;DHT22;42052;41.634;-0.946;2023-05-07T10:24:52;24.00;44.50
56172;DHT22;42052;41.634;-0.946;2023-05-07T10:27:41;24.00;44.50
56172;DHT22;42052;41.634;-0.946;2023-05-07T10:33:27;24.00;44.40
56172;DHT22;42052;41.634;-0.946;2023-05-07T10:36:14;24.10;44.50
56172;DHT22;42052;41.634;-0.946;2023-05-07T10:39:00;24.00;44.00
56172;DHT22;42052;41.634;-0.946;2023-05-07T10:41:48;24.00;44.00
56172;DHT22;42052;41.634;-0.946;2023-05-07T10:44:34;24.00;44.00
56172;DHT22;42052;41.634;-0.946;2023-05-07T10:47:21;24.10;44.20
56172;DHT22;42052;41.634;-0.946;2023-05-07T11:02:16;24.20;44.10
56172;DHT22;42052;41.634;-0.946;2023-05-07T11:05:24;24.20;43.90
56172;DHT22;42052;41.634;-0.946;2023-05-07T11:08:11;24.20;43.70
56172;DHT22;42052;41.634;-0.946;2023-05-07T11:10:57;24.20;43.80
56172;DHT22;42052;41.634;-0.946;2023-05-07T11:16:31;24.30;43.70
56172;DHT22;42052;41.634;-0.946;2023-05-07T11:19:51;24.20;43.60
56172;DHT22;42052;41.634;-0.946;2023-05-07T11:22:38;24.30;43.80
56172;DHT22;42052;41.634;-0.946;2023-05-07T11:25:25;24.40;43.70
56172;DHT22;42052;41.634;-0.946;2023-05-07T11:28:12;24.30;43.10
56172;DHT22;42052;41.634;-0.946;2023-05-07T11:30:58;24.40;43.20
56172;DHT22;42052;41.634;-0.946;2023-05-07T11:33:45;24.40;43.20
56172;DHT22;42052;41.634;-0.946;2023-05-07T11:36:32;24.40;43.20
56172;DHT22;42052;41.634;-0.946;2023-05-07T11:39:29;24.50;43.30
56172;DHT22;42052;41.634;-0.946;2023-05-07T11:42:28;24.50;43.30
56172;DHT22;42052;41.634;-0.946;2023-05-07T11:45:23;24.50;43.10
56172;DHT22;42052;41.634;-0.946;2023-05-07T11:48:10;24.50;43.80
56172;DHT22;42052;41.634;-0.946;2023-05-07T11:51:02;24.60;43.10
56172;DHT22;42052;41.634;-0.946;2023-05-07T11:53:50;24.60;43.00
56172;DHT22;42052;41.634;-0.946;2023-05-07T11:56:36;24.60;43.60
56172;DHT22;42052;41.634;-0.946;2023-05-07T11:59:23;24.60;42.70
56172;DHT22;42052;41.634;-0.946;2023-05-07T12:02:09;24.70;42.60
56172;DHT22;42052;41.634;-0.946;2023-05-07T12:04:55;24.70;42.40
56172;DHT22;42052;41.634;-0.946;2023-05-07T12:07:41;24.70;42.80
56172;DHT22;42052;41.634;-0.946;2023-05-07T12:10:27;24.70;42.10
56172;DHT22;42052;41.634;-0.946;2023-05-07T12:13:15;24.80;42.20
56172;DHT22;42052;41.634;-0.946;2023-05-07T12:16:02;24.80;42.20
56172;DHT22;42052;41.634;-0.946;2023-05-07T12:18:49;24.70;42.30
56172;DHT22;42052;41.634;-0.946;2023-05-07T12:21:36;24.80;42.10
56172;DHT22;42052;41.634;-0.946;2023-05-07T12:24:22;24.90;42.80
56172;DHT22;42052;41.634;-0.946;2023-05-07T12:27:09;24.90;41.70
56172;DHT22;42052;41.634;-0.946;2023-05-07T12:29:57;24.90;41.50
56172;DHT22;42052;41.634;-0.946;2023-05-07T12:32:45;25.00;41.60
56172;DHT22;42052;41.634;-0.946;2023-05-07T12:35:39;24.90;41.60
56172;DHT22;42052;41.634;-0.946;2023-05-07T12:38:26;24.90;41.50
56172;DHT22;42052;41.634;-0.946;2023-05-07T12:41:12;25.00;41.00
56172;DHT22;42052;41.634;-0.946;2023-05-07T12:43:58;25.00;40.50
56172;DHT22;42052;41.634;-0.946;2023-05-07T12:46:46;25.10;40.60
56172;DHT22;42052;41.634;-0.946;2023-05-07T12:49:34;25.10;40.40
56172;DHT22;42052;41.634;-0.946;2023-05-07T12:52:23;25.10;40.30
56172;DHT22;42052;41.634;-0.946;2023-05-07T12:55:13;25.20;40.40
56172;DHT22;42052;41.634;-0.946;2023-05-07T12:58:01;25.20;39.60
56172;DHT22;42052;41.634;-0.946;2023-05-07T13:00:49;25.20;39.90
56172;DHT22;42052;41.634;-0.946;2023-05-07T13:03:37;25.10;40.20
56172;DHT22;42052;41.634;-0.946;2023-05-07T13:06:23;25.20;40.30
56172;DHT22;42052;41.634;-0.946;2023-05-07T13:09:09;25.20;40.10
56172;DHT22;42052;41.634;-0.946;2023-05-07T13:11:55;25.20;40.10
56172;DHT22;42052;41.634;-0.946;2023-05-07T13:14:42;25.20;40.20
56172;DHT22;42052;41.634;-0.946;2023-05-07T13:17:28;25.20;40.00
56172;DHT22;42052;41.634;-0.946;2023-05-07T13:20:14;25.20;39.70
56172;DHT22;42052;41.634;-0.946;2023-05-07T13:23:01;25.20;39.80
56172;DHT22;42052;41.634;-0.946;2023-05-07T13:25:48;25.30;39.10
56172;DHT22;42052;41.634;-0.946;2023-05-07T13:28:34;25.40;38.70
56172;DHT22;42052;41.634;-0.946;2023-05-07T13:31:21;25.40;38.20
56172;DHT22;42052;41.634;-0.946;2023-05-07T13:34:07;25.40;38.30
56172;DHT22;42052;41.634;-0.946;2023-05-07T13:36:53;25.30;38.60
56172;DHT22;42052;41.634;-0.946;2023-05-07T13:39:39;25.40;38.80
56172;DHT22;42052;41.634;-0.946;2023-05-07T13:42:26;25.40;39.70
56172;DHT22;42052;41.634;-0.946;2023-05-07T13:45:12;25.50;38.40
56172;DHT22;42052;41.634;-0.946;2023-05-07T13:47:59;25.40;38.30
56172;DHT22;42052;41.634;-0.946;2023-05-07T13:50:45;25.40;38.30
56172;DHT22;42052;41.634;-0.946;2023-05-07T13:53:32;25.40;38.50
56172;DHT22;42052;41.634;-0.946;2023-05-07T13:56:18;25.40;38.60
56172;DHT22;42052;41.634;-0.946;2023-05-07T13:59:04;25.40;38.50
56172;DHT22;42052;41.634;-0.946;2023-05-07T14:01:50;25.40;38.40
56172;DHT22;42052;41.634;-0.946;2023-05-07T14:04:37;25.40;38.30
56172;DHT22;42052;41.634;-0.946;2023-05-07T14:07:23;25.50;38.40
56172;DHT22;42052;41.634;-0.946;2023-05-07T14:10:10;25.50;38.30
56172;DHT22;42052;41.634;-0.946;2023-05-07T14:12:56;25.50;38.20
56172;DHT22;42052;41.634;-0.946;2023-05-07T14:15:43;25.40;38.30
56172;DHT22;42052;41.634;-0.946;2023-05-07T14:18:32;25.50;38.20
56172;DHT22;42052;41.634;-0.946;2023-05-07T14:21:20;25.50;37.90
56172;DHT22;42052;41.634;-0.946;2023-05-07T14:24:07;25.60;37.80
56172;DHT22;42052;41.634;-0.946;2023-05-07T14:26:54;25.60;37.80
56172;DHT22;42052;41.634;-0.946;2023-05-07T14:29:40;25.60;37.80
56172;DHT22;42052;41.634;-0.946;2023-05-07T14:32:26;25.60;38.10
56172;DHT22;42052;41.634;-0.946;2023-05-07T14:35:12;25.50;37.90
56172;DHT22;42052;41.634;-0.946;2023-05-07T14:37:58;25.50;37.80
56172;DHT22;42052;41.634;-0.946;2023-05-07T14:40:45;25.50;37.80
56172;DHT22;42052;41.634;-0.946;2023-05-07T14:43:32;25.50;37.50
56172;DHT22;42052;41.634;-0.946;2023-05-07T14:46:18;25.60;37.10
56172;DHT22;42052;41.634;-0.946;2023-05-07T14:49:04;25.60;36.70
56172;DHT22;42052;41.634;-0.946;2023-05-07T14:51:51;25.60;36.20
56172;DHT22;42052;41.634;-0.946;2023-05-07T14:54:37;25.60;36.10
56172;DHT22;42052;41.634;-0.946;2023-05-07T14:57:24;25.60;36.20
56172;DHT22;42052;41.634;-0.946;2023-05-07T15:00:10;25.60;36.50
56172;DHT22;42052;41.634;-0.946;2023-05-07T15:03:05;25.60;36.40
56172;DHT22;42052;41.634;-0.946;2023-05-07T15:05:51;25.60;36.40
56172;DHT22;42052;41.634;-0.946;2023-05-07T15:08:38;25.60;35.60
56172;DHT22;42052;41.634;-0.946;2023-05-07T15:11:24;25.60;35.60
56172;DHT22;42052;41.634;-0.946;2023-05-07T15:14:10;25.60;35.50
56172;DHT22;42052;41.634;-0.946;2023-05-07T15:16:56;25.60;34.80
56172;DHT22;42052;41.634;-0.946;2023-05-07T15:19:42;25.60;35.10
56172;DHT22;42052;41.634;-0.946;2023-05-07T15:22:28;25.60;34.50
56172;DHT22;42052;41.634;-0.946;2023-05-07T15:25:15;25.70;34.30
56172;DHT22;42052;41.634;-0.946;2023-05-07T15:28:02;25.70;34.40
56172;DHT22;42052;41.634;-0.946;2023-05-07T15:30:48;25.70;34.30
56172;DHT22;42052;41.634;-0.946;2023-05-07T15:33:34;25.70;34.40
56172;DHT22;42052;41.634;-0.946;2023-05-07T15:36:20;25.70;35.40
56172;DHT22;42052;41.634;-0.946;2023-05-07T15:39:07;25.80;35.70
56172;DHT22;42052;41.634;-0.946;2023-05-07T15:41:53;25.70;34.90
56172;DHT22;42052;41.634;-0.946;2023-05-07T15:44:39;25.70;34.40
56172;DHT22;42052;41.634;-0.946;2023-05-07T15:47:25;25.60;34.60
56172;DHT22;42052;41.634;-0.946;2023-05-07T15:50:11;25.70;34.80
56172;DHT22;42052;41.634;-0.946;2023-05-07T15:52:57;25.70;35.00
56172;DHT22;42052;41.634;-0.946;2023-05-07T15:55:43;25.80;35.10
56172;DHT22;42052;41.634;-0.946;2023-05-07T15:58:29;25.70;35.10
56172;DHT22;42052;41.634;-0.946;2023-05-07T16:01:15;25.80;35.30
56172;DHT22;42052;41.634;-0.946;2023-05-07T16:04:01;25.80;35.20
56172;DHT22;42052;41.634;-0.946;2023-05-07T16:06:48;25.80;35.10
56172;DHT22;42052;41.634;-0.946;2023-05-07T16:09:34;25.80;35.00
56172;DHT22;42052;41.634;-0.946;2023-05-07T16:12:21;25.80;34.90
56172;DHT22;42052;41.634;-0.946;2023-05-07T16:15:07;25.80;34.80
56172;DHT22;42052;41.634;-0.946;2023-05-07T16:17:54;25.80;34.70
56172;DHT22;42052;41.634;-0.946;2023-05-07T16:20:42;25.80;34.90
56172;DHT22;42052;41.634;-0.946;2023-05-07T16:23:28;25.80;34.80
56172;DHT22;42052;41.634;-0.946;2023-05-07T16:26:15;25.80;34.40
56172;DHT22;42052;41.634;-0.946;2023-05-07T16:29:03;25.80;34.10
56172;DHT22;42052;41.634;-0.946;2023-05-07T16:31:52;25.80;34.10
56172;DHT22;42052;41.634;-0.946;2023-05-07T16:34:38;25.80;34.20
56172;DHT22;42052;41.634;-0.946;2023-05-07T16:37:25;25.80;34.20
56172;DHT22;42052;41.634;-0.946;2023-05-07T16:40:11;25.80;34.10
56172;DHT22;42052;41.634;-0.946;2023-05-07T16:42:57;25.80;34.40
56172;DHT22;42052;41.634;-0.946;2023-05-07T16:45:44;25.80;34.30
56172;DHT22;42052;41.634;-0.946;2023-05-07T16:48:31;25.80;34.50
56172;DHT22;42052;41.634;-0.946;2023-05-07T16:51:17;25.80;34.70
56172;DHT22;42052;41.634;-0.946;2023-05-07T16:54:03;25.80;34.90
56172;DHT22;42052;41.634;-0.946;2023-05-07T16:56:49;25.80;34.60
56172;DHT22;42052;41.634;-0.946;2023-05-07T16:59:35;25.80;34.60
56172;DHT22;42052;41.634;-0.946;2023-05-07T17:02:22;25.80;34.50
56172;DHT22;42052;41.634;-0.946;2023-05-07T17:05:08;25.80;34.60
56172;DHT22;42052;41.634;-0.946;2023-05-07T17:07:54;25.80;34.70
56172;DHT22;42052;41.634;-0.946;2023-05-07T17:10:41;25.80;34.50
56172;DHT22;42052;41.634;-0.946;2023-05-07T17:13:27;25.80;34.60
56172;DHT22;42052;41.634;-0.946;2023-05-07T17:16:13;25.80;34.40
56172;DHT22;42052;41.634;-0.946;2023-05-07T17:18:59;25.80;34.50
56172;DHT22;42052;41.634;-0.946;2023-05-07T17:21:46;25.80;34.30
56172;DHT22;42052;41.634;-0.946;2023-05-07T17:24:32;25.80;34.20
56172;DHT22;42052;41.634;-0.946;2023-05-07T17:27:18;25.80;34.10
56172;DHT22;42052;41.634;-0.946;2023-05-07T17:30:05;25.80;33.90
56172;DHT22;42052;41.634;-0.946;2023-05-07T17:32:52;25.70;34.00
56172;DHT22;42052;41.634;-0.946;2023-05-07T17:35:40;25.70;34.00